General Aviation Weather

Text Reports

Enter one or more of the following location identifiers separated by a space:

Zip Code, Four-Character ICAO or Three-Character IATA airport codes.

METAR - Aviation Routine Weather Report
KPOF - Poplar Bluff, Missouri
Updated at 6:53 PM GMT on April 19, 2014 (1:53 PM CDT):
METAR KPOF 191853Z AUTO VRB05KT 10SM CLR 23/04 A3020 RMK AO2 SLP225 T02330044
TAF - Terminal Area Forecast
KPOF - Poplar Bluff, Missouri
Updated at 6:53 PM GMT on April 19, 2014 (1:53 PM CDT):
No TAF is currently available for this location.
Decoded:
No decoded TAF is available.
PIREP - Pilot Weather Report
KPOF - Poplar Bluff, Missouri
Updated at 6:53 PM GMT on April 19, 2014 (1:53 PM CDT):
No PIREP is currently available for this location.
AIRMET - Airmens Meteorological Information
KPOF - Poplar Bluff, Missouri
Updated at 6:53 PM GMT on April 19, 2014 (1:53 PM CDT):
No AIRMET is currently available for this location.
SIGMET - Significant Meteorological Information
KPOF - Poplar Bluff, Missouri
Updated at 6:53 PM GMT on April 19, 2014 (1:53 PM CDT):
No SIGMET is currently available for this location.
NOTAM - Notice to Airmen
KPOF - Poplar Bluff, Missouri
Updated at 6:53 PM GMT on April 19, 2014 (1:53 PM CDT):
No NOTAM is currently available for this location.
Forecast Area
KPOF - Poplar Bluff, Missouri
Updated at 6:53 PM GMT on April 19, 2014 (1:53 PM CDT):
No NOTAM is currently available for this location.
Aviation Weather Maps